Time;durP1;ratioP1;P1;durP2;ratioP2;P2;SDS_P1;SDS_P2;PMS_P1;PMS_P2;Temp;Humidity;BMP_temperature;BMP_pressure;BME280_temperature;BME280_humidity;BME280_pressure;Samples;Min_cycle;Max_cycle;Signal;HPM_P1;HPM_P2
2023/08/01 00:00:54;;;;;;;4.67;4.20;;;;;;;18.65;100.00;99166.25;5012684;28;20651;-75
2023/08/01 00:03:22;;;;;;;4.10;3.70;;;;;;;18.66;100.00;99152.22;5010643;28;21163;-75
2023/08/01 00:05:47;;;;;;;3.90;3.60;;;;;;;18.64;100.00;99148.03;5009722;28;20285;-75
2023/08/01 00:08:13;;;;;;;4.20;3.90;;;;;;;18.63;100.00;99135.84;5012494;28;20281;-74
2023/08/01 00:10:39;;;;;;;4.37;3.97;;;;;;;18.63;100.00;99122.75;5013330;28;20208;-75
2023/08/01 00:13:05;;;;;;;4.37;3.97;;;;;;;18.65;100.00;99111.22;5016950;28;20662;-75
2023/08/01 00:15:30;;;;;;;4.50;4.10;;;;;;;18.64;100.00;99100.84;5010785;28;20676;-75
2023/08/01 00:17:59;;;;;;;3.87;3.57;;;;;;;18.64;100.00;99099.06;5012090;28;20205;-75
2023/08/01 00:20:25;;;;;;;3.97;3.67;;;;;;;18.65;100.00;99087.66;5009629;28;20199;-75
2023/08/01 00:22:50;;;;;;;4.33;3.70;;;;;;;18.67;100.00;99077.09;5012524;28;20677;-75
2023/08/01 00:25:17;;;;;;;4.70;4.30;;;;;;;18.67;100.00;99072.69;5013691;28;20217;-75
2023/08/01 00:27:42;;;;;;;5.63;4.70;;;;;;;18.65;100.00;99071.94;5011218;28;20279;-75
2023/08/01 00:30:10;;;;;;;4.30;3.90;;;;;;;18.63;100.00;99073.81;5010244;28;20336;-76
2023/08/01 00:32:39;;;;;;;4.10;3.80;;;;;;;18.61;100.00;99062.56;5014774;28;20246;-74
2023/08/01 00:35:05;;;;;;;5.93;4.93;;;;;;;18.61;100.00;99074.84;5011309;28;20209;-75
2023/08/01 00:37:31;;;;;;;4.83;4.20;;;;;;;18.57;100.00;99064.53;5013811;28;20242;-74
2023/08/01 00:39:56;;;;;;;5.20;4.77;;;;;;;18.55;100.00;99081.31;5017201;28;20257;-74
2023/08/01 00:42:24;;;;;;;4.93;4.43;;;;;;;18.54;100.00;99092.72;5018862;28;20214;-75
2023/08/01 00:44:51;;;;;;;4.73;4.30;;;;;;;18.53;100.00;99104.13;5018717;28;20749;-76
2023/08/01 00:47:16;;;;;;;5.50;4.30;;;;;;;18.53;100.00;99128.53;5014759;28;20185;-75
2023/08/01 00:49:42;;;;;;;4.67;4.20;;;;;;;18.52;100.00;99129.50;5010254;28;20188;-75
2023/08/01 00:52:09;;;;;;;8.13;4.87;;;;;;;18.52;100.00;99153.09;5011560;28;20213;-74
2023/08/01 00:54:36;;;;;;;5.97;5.00;;;;;;;18.52;100.00;99142.59;5014675;28;20193;-74
2023/08/01 00:57:05;;;;;;;5.77;4.57;;;;;;;18.50;100.00;99127.88;5007500;28;20183;-75
2023/08/01 00:59:31;;;;;;;5.97;4.93;;;;;;;18.46;100.00;99153.44;5015342;28;20191;-74
2023/08/01 01:02:00;;;;;;;6.27;4.77;;;;;;;18.41;100.00;99142.38;5013166;28;20210;-76
2023/08/01 01:04:26;;;;;;;5.07;4.53;;;;;;;18.38;100.00;99132.94;5010585;28;20210;-74
2023/08/01 01:07:05;;;;;;;5.33;4.83;;;;;;;18.36;100.00;99118.25;5011028;28;20676;-74
2023/08/01 01:09:33;;;;;;;6.70;4.50;;;;;;;18.33;100.00;99098.31;5012511;28;20180;-76
2023/08/01 01:11:59;;;;;;;5.30;4.80;;;;;;;18.31;100.00;99076.59;5005762;28;20209;-76
2023/08/01 01:14:28;;;;;;;5.90;5.07;;;;;;;18.26;100.00;99069.03;5011841;28;20181;-75
2023/08/01 01:16:54;;;;;;;5.60;5.00;;;;;;;18.21;100.00;99059.78;5008273;28;20183;-75
2023/08/01 01:19:20;;;;;;;6.40;5.10;;;;;;;18.21;100.00;99054.53;5009557;28;20532;-75
2023/08/01 01:21:47;;;;;;;5.53;4.43;;;;;;;18.20;100.00;99058.94;5010916;28;20212;-75
2023/08/01 01:24:14;;;;;;;6.77;4.30;;;;;;;18.18;100.00;99046.88;5007069;28;20741;-74
2023/08/01 01:26:41;;;;;;;7.60;4.97;;;;;;;18.13;100.00;99070.72;5006769;28;20181;-75
2023/08/01 01:29:10;;;;;;;6.17;5.57;;;;;;;18.15;100.00;99065.41;5015352;28;20212;-75
2023/08/01 01:31:36;;;;;;;7.07;5.20;;;;;;;18.12;100.00;99058.56;5009067;28;20290;-75
2023/08/01 01:34:03;;;;;;;6.07;5.47;;;;;;;18.11;100.00;99056.88;5009776;28;20685;-75
2023/08/01 01:36:29;;;;;;;5.73;5.20;;;;;;;18.10;100.00;99042.94;5009332;28;20280;-76
2023/08/01 01:38:54;;;;;;;5.63;4.50;;;;;;;18.10;100.00;99040.34;5009482;28;20952;-75
2023/08/01 01:41:19;;;;;;;5.97;5.23;;;;;;;18.08;100.00;99044.81;5011350;28;20187;-75
2023/08/01 01:43:45;;;;;;;5.97;4.90;;;;;;;18.07;100.00;99037.91;5010247;28;20686;-75
2023/08/01 01:46:10;;;;;;;5.93;5.33;;;;;;;18.04;100.00;99032.00;5015932;28;20232;-75
2023/08/01 01:48:35;;;;;;;6.27;4.90;;;;;;;18.05;100.00;99045.00;5013881;28;20204;-74
2023/08/01 01:51:04;;;;;;;6.63;5.17;;;;;;;18.04;100.00;99045.94;5010269;28;20190;-75
2023/08/01 01:53:29;;;;;;;6.57;5.47;;;;;;;18.04;100.00;99037.25;5009485;28;20205;-76
2023/08/01 01:55:54;;;;;;;7.53;5.37;;;;;;;18.01;100.00;99043.47;5011128;28;20186;-76
2023/08/01 01:58:20;;;;;;;6.63;5.03;;;;;;;18.02;100.00;99039.09;5009067;28;20243;-76
2023/08/01 02:00:45;;;;;;;6.00;4.63;;;;;;;17.99;100.00;99024.44;5012331;28;20191;-76
2023/08/01 02:03:12;;;;;;;6.30;4.67;;;;;;;17.99;100.00;99016.59;5010708;28;20292;-76
2023/08/01 02:05:39;;;;;;;6.33;5.00;;;;;;;17.97;100.00;99010.56;5007806;28;20281;-76
2023/08/01 02:08:05;;;;;;;5.50;5.00;;;;;;;17.97;100.00;99010.56;5010553;28;20200;-75
2023/08/01 02:10:30;;;;;;;7.30;5.00;;;;;;;17.97;100.00;99006.19;5012710;28;20265;-75
2023/08/01 02:12:56;;;;;;;5.97;5.00;;;;;;;17.97;100.00;98992.25;5009763;28;20214;-75
2023/08/01 02:15:21;;;;;;;6.37;5.33;;;;;;;17.98;100.00;98993.97;5007499;28;20196;-75
2023/08/01 02:17:46;;;;;;;5.23;4.73;;;;;;;17.96;100.00;98996.63;5013092;28;20985;-75
2023/08/01 02:20:12;;;;;;;5.83;5.10;;;;;;;17.98;100.00;98999.19;5011960;28;20198;-75
2023/08/01 02:22:37;;;;;;;5.70;5.20;;;;;;;17.98;100.00;99000.03;5012441;28;20215;-75
2023/08/01 02:25:03;;;;;;;6.00;5.23;;;;;;;17.98;100.00;98981.69;5011994;28;20212;-75
2023/08/01 02:27:28;;;;;;;5.90;5.30;;;;;;;18.00;100.00;98991.25;5011550;28;20304;-75
2023/08/01 02:29:53;;;;;;;5.77;5.27;;;;;;;17.97;100.00;98998.34;5011962;28;20258;-75
2023/08/01 02:32:19;;;;;;;5.40;4.90;;;;;;;17.98;100.00;98984.31;5011431;28;20220;-74
2023/08/01 02:34:44;;;;;;;6.60;5.40;;;;;;;17.98;100.00;98981.69;5018829;28;20208;-75
2023/08/01 02:37:09;;;;;;;5.57;5.07;;;;;;;17.98;100.00;98973.84;5011027;28;20192;-74
2023/08/01 02:39:35;;;;;;;4.80;4.40;;;;;;;17.98;100.00;98988.72;5038349;28;21158;-75
2023/08/01 02:42:01;;;;;;;5.87;4.40;;;;;;;17.99;100.00;98974.72;5030387;28;20647;-75
2023/08/01 02:44:26;;;;;;;4.93;4.53;;;;;;;18.01;100.00;98977.22;5010325;28;20279;-76
2023/08/01 02:46:52;;;;;;;5.63;5.13;;;;;;;18.01;100.00;98974.59;5009597;28;20206;-75
2023/08/01 02:49:17;;;;;;;6.90;5.63;;;;;;;18.02;100.00;98971.88;5011032;28;20188;-75
2023/08/01 02:51:42;;;;;;;6.53;5.33;;;;;;;18.02;100.00;98976.28;5009061;28;20217;-75
2023/08/01 02:54:08;;;;;;;8.77;5.73;;;;;;;17.99;100.00;98974.72;5007151;28;20197;-76
2023/08/01 02:56:33;;;;;;;7.43;5.60;;;;;;;17.98;100.00;98979.09;5009506;28;20220;-76
2023/08/01 02:58:58;;;;;;;7.03;5.40;;;;;;;17.95;100.00;98984.47;5007196;28;20189;-75
2023/08/01 03:01:24;;;;;;;5.93;4.70;;;;;;;17.95;100.00;98970.56;5010092;28;20371;-77
2023/08/01 03:03:49;;;;;;;5.70;4.80;;;;;;;17.96;100.00;98973.06;5013045;28;20184;-75
2023/08/01 03:06:15;;;;;;;5.37;4.57;;;;;;;17.96;100.00;98974.84;5008898;28;20223;-75
2023/08/01 03:08:40;;;;;;;5.53;4.60;;;;;;;17.97;100.00;98966.94;5011630;28;20200;-75
2023/08/01 03:11:05;;;;;;;6.03;4.87;;;;;;;18.01;100.00;98975.44;5005990;28;20263;-75
2023/08/01 03:13:31;;;;;;;6.77;5.03;;;;;;;18.07;100.00;98971.63;5008343;28;20195;-76
2023/08/01 03:15:56;;;;;;;5.10;4.60;;;;;;;18.10;100.00;98972.25;5009364;28;20216;-76
2023/08/01 03:18:22;;;;;;;5.57;4.77;;;;;;;18.12;100.00;98975.63;5009467;28;20312;-75
2023/08/01 03:20:47;;;;;;;6.47;4.90;;;;;;;18.18;100.00;98947.38;5012964;28;20207;-76
2023/08/01 03:23:15;;;;;;;6.03;5.17;;;;;;;18.16;100.00;98936.16;5014604;28;20310;-76
2023/08/01 03:25:41;;;;;;;5.43;4.67;;;;;;;18.16;100.00;98936.16;5014681;28;20214;-77
2023/08/01 03:28:06;;;;;;;5.30;4.80;;;;;;;18.11;100.00;98932.06;5015014;28;20604;-76
2023/08/01 03:30:32;;;;;;;6.87;5.03;;;;;;;18.07;100.00;98903.56;5014067;28;20195;-75
2023/08/01 03:32:58;;;;;;;7.63;4.97;;;;;;;18.05;100.00;98868.78;5015758;28;20710;-76
2023/08/01 03:35:23;;;;;;;5.63;4.53;;;;;;;18.03;100.00;98839.22;5012539;28;20226;-76
2023/08/01 03:37:49;;;;;;;6.43;4.67;;;;;;;18.01;100.00;98788.75;5017383;28;20283;-76
2023/08/01 03:40:14;;;;;;;5.27;4.77;;;;;;;17.98;100.00;98774.91;5013311;28;20720;-76
2023/08/01 03:42:40;;;;;;;7.10;4.73;;;;;;;17.99;100.00;98822.91;5011325;28;20704;-75
2023/08/01 03:45:10;;;;;;;4.80;4.30;;;;;;;17.96;100.00;98857.91;5016658;28;20637;-75
2023/08/01 03:47:35;;;;;;;4.87;4.33;;;;;;;17.94;100.00;98866.78;5014152;28;20185;-76
2023/08/01 03:50:00;;;;;;;5.20;4.60;;;;;;;17.93;100.00;98862.50;5013282;28;20188;-75
2023/08/01 03:52:26;;;;;;;6.37;4.33;;;;;;;17.96;100.00;98847.44;5013030;28;20834;-75
2023/08/01 03:54:54;;;;;;;4.80;4.30;;;;;;;17.97;100.00;98850.91;5014992;28;20203;-75
2023/08/01 03:57:20;;;;;;;5.50;4.87;;;;;;;17.98;100.00;98829.06;5013136;28;21943;-75
2023/08/01 03:59:46;;;;;;;5.90;4.30;;;;;;;18.01;100.00;98830.63;5029694;28;20213;-74
2023/08/01 04:02:11;;;;;;;5.70;4.70;;;;;;;18.02;100.00;98848.03;5030116;28;20701;-74
2023/08/01 04:04:37;;;;;;;6.57;4.30;;;;;;;18.04;100.00;98844.38;5024836;28;20207;-75
2023/08/01 04:07:02;;;;;;;6.53;4.20;;;;;;;18.05;100.00;98840.81;5015287;28;20710;-74
2023/08/01 04:09:28;;;;;;;4.80;4.30;;;;;;;18.07;100.00;98832.88;5010471;28;20740;-74
2023/08/01 04:11:53;;;;;;;7.23;4.50;;;;;;;18.10;100.00;98840.50;5013103;28;20228;-76
2023/08/01 04:14:18;;;;;;;6.83;4.90;;;;;;;18.14;100.00;98891.75;5011849;28;20192;-76
2023/08/01 04:16:44;;;;;;;5.17;4.10;;;;;;;18.15;100.00;98892.59;5012957;28;20195;-75
2023/08/01 04:19:09;;;;;;;5.87;4.20;;;;;;;18.16;100.00;98899.50;5016033;28;20184;-76
2023/08/01 04:21:35;;;;;;;4.80;4.30;;;;;;;18.18;100.00;98915.94;5016273;28;20208;-75
2023/08/01 04:24:00;;;;;;;4.80;4.33;;;;;;;18.19;100.00;98928.09;5011803;28;20566;-76
2023/08/01 04:26:25;;;;;;;5.60;4.37;;;;;;;18.18;100.00;98916.81;5012146;28;20273;-75
2023/08/01 04:28:51;;;;;;;4.90;4.37;;;;;;;18.18;100.00;98916.81;5011010;28;20188;-75
2023/08/01 04:31:16;;;;;;;6.13;4.40;;;;;;;18.18;100.00;98900.25;5011275;28;20242;-76
2023/08/01 04:33:42;;;;;;;5.23;4.47;;;;;;;18.16;100.00;98908.22;5013889;28;20399;-74
2023/08/01 04:36:07;;;;;;;4.57;4.17;;;;;;;18.14;100.00;98902.22;5016183;28;20173;-75
2023/08/01 04:38:33;;;;;;;6.70;4.57;;;;;;;18.13;100.00;98909.25;5018228;28;20198;-74
2023/08/01 04:40:58;;;;;;;4.43;4.00;;;;;;;18.14;100.00;98915.31;5015567;28;20194;-75
2023/08/01 04:43:24;;;;;;;5.00;4.00;;;;;;;18.15;100.00;98927.47;5013689;28;20218;-76
2023/08/01 04:45:49;;;;;;;5.37;4.17;;;;;;;18.16;100.00;98931.78;5010900;28;20239;-75
2023/08/01 04:48:14;;;;;;;4.47;4.00;;;;;;;18.18;100.00;98934.28;5011686;28;20275;-75
2023/08/01 04:50:39;;;;;;;4.37;3.77;;;;;;;18.20;100.00;98935.03;5014831;28;20193;-75
2023/08/01 04:53:06;;;;;;;4.87;3.80;;;;;;;18.21;100.00;98928.84;5013441;28;20203;-75
2023/08/01 04:55:31;;;;;;;5.13;4.00;;;;;;;18.22;100.00;98918.31;5011012;28;20210;-75
2023/08/01 04:57:57;;;;;;;4.50;3.97;;;;;;;18.24;100.00;98918.19;5010950;28;20305;-75
2023/08/01 05:00:22;;;;;;;5.13;4.00;;;;;;;18.25;100.00;98893.69;5012109;28;20575;-76
2023/08/01 05:02:47;;;;;;;5.37;4.20;;;;;;;18.27;100.00;98876.13;5012926;28;20208;-75
2023/08/01 05:05:12;;;;;;;7.37;4.50;;;;;;;18.26;100.00;98872.63;5014170;28;20213;-76
2023/08/01 05:07:38;;;;;;;5.87;4.77;;;;;;;18.26;100.00;98877.88;5014224;28;20280;-75
2023/08/01 05:10:03;;;;;;;6.30;4.40;;;;;;;18.23;100.00;98858.91;5010494;28;20585;-75
2023/08/01 05:12:29;;;;;;;5.70;4.67;;;;;;;18.21;100.00;98861.63;5013197;28;20847;-75
2023/08/01 05:14:54;;;;;;;5.13;4.50;;;;;;;18.25;100.00;98864.91;5013097;28;20194;-75
2023/08/01 05:17:20;;;;;;;5.10;4.10;;;;;;;18.22;100.00;98860.69;5016488;28;20191;-75
2023/08/01 05:19:45;;;;;;;5.33;4.73;;;;;;;18.23;100.00;98867.59;5012011;28;20623;-75
2023/08/01 05:22:10;;;;;;;5.83;4.57;;;;;;;18.24;100.00;98871.88;5010606;28;20212;-75
2023/08/01 05:24:39;;;;;;;6.40;4.60;;;;;;;18.27;100.00;98881.34;5012645;28;21037;-76
2023/08/01 05:27:04;;;;;;;8.53;5.30;;;;;;;18.30;100.00;98875.94;5009179;28;20196;-75
2023/08/01 05:29:29;;;;;;;6.03;5.43;;;;;;;18.30;100.00;98875.06;5010859;28;20762;-75
2023/08/01 05:31:55;;;;;;;5.93;5.10;;;;;;;18.31;100.00;98880.19;5011594;28;20259;-75
2023/08/01 05:34:20;;;;;;;6.27;4.97;;;;;;;18.31;100.00;98884.59;5011252;28;20635;-75
2023/08/01 05:36:45;;;;;;;6.77;5.70;;;;;;;18.29;100.00;98884.72;5010703;28;20208;-76
2023/08/01 05:39:11;;;;;;;5.97;5.37;;;;;;;18.27;100.00;98889.22;5013193;28;20198;-75
2023/08/01 05:41:36;;;;;;;7.20;5.47;;;;;;;18.26;100.00;98887.53;5013840;28;20213;-76
2023/08/01 05:44:02;;;;;;;6.33;5.50;;;;;;;18.22;100.00;98893.88;5013529;28;20257;-75
2023/08/01 05:46:27;;;;;;;6.83;5.70;;;;;;;18.19;100.00;98902.78;5013362;28;20266;-76
2023/08/01 05:48:53;;;;;;;5.70;5.10;;;;;;;18.18;100.00;98924.66;5011082;28;20197;-75
2023/08/01 05:51:21;;;;;;;6.23;5.10;;;;;;;18.16;100.00;98941.38;5017429;28;20278;-76
2023/08/01 05:53:49;;;;;;;8.73;6.53;;;;;;;18.13;100.00;98947.66;5008078;28;20204;-76
2023/08/01 05:56:15;;;;;;;7.70;5.80;;;;;;;18.12;100.00;98925.03;5010221;28;20320;-76
2023/08/01 05:58:40;;;;;;;7.40;5.23;;;;;;;18.06;100.00;98947.19;5011199;28;20216;-75
2023/08/01 06:01:06;;;;;;;5.93;5.33;;;;;;;17.96;100.00;98949.50;5012244;28;20194;-76
2023/08/01 06:03:31;;;;;;;10.67;6.60;;;;;;;17.81;100.00;98945.19;5011392;28;20612;-77
2023/08/01 06:05:56;;;;;;;8.73;5.97;;;;;;;17.71;100.00;98942.28;5012990;28;20285;-76
2023/08/01 06:08:22;;;;;;;9.00;6.90;;;;;;;17.65;100.00;98937.44;5016116;28;20195;-77
2023/08/01 06:10:47;;;;;;;7.30;6.07;;;;;;;17.56;100.00;98928.38;5013359;28;20192;-76
2023/08/01 06:13:15;;;;;;;8.77;6.30;;;;;;;17.49;100.00;98922.69;5009393;28;20203;-76
2023/08/01 06:15:40;;;;;;;7.83;7.00;;;;;;;17.46;100.00;98922.84;5012017;28;20204;-76
2023/08/01 06:18:12;;;;;;;8.53;6.70;;;;;;;17.45;100.00;98913.31;5008047;28;21958;-76
2023/08/01 06:20:40;;;;;;;6.70;5.90;;;;;;;17.43;100.00;98901.28;5014646;28;20188;-75
2023/08/01 06:23:06;;;;;;;7.43;6.60;;;;;;;17.41;100.00;98901.34;5014075;28;20591;-77
2023/08/01 06:25:31;;;;;;;7.73;6.97;;;;;;;17.42;100.00;98902.22;5011149;28;20212;-75
2023/08/01 06:27:56;;;;;;;7.63;6.83;;;;;;;17.43;100.00;98894.25;5012178;28;20214;-76
2023/08/01 06:30:22;;;;;;;7.40;6.60;;;;;;;17.44;100.00;98895.94;5009690;28;20255;-76
2023/08/01 06:32:47;;;;;;;8.73;7.10;;;;;;;17.46;100.00;98899.31;5016471;28;20208;-75
2023/08/01 06:35:15;;;;;;;6.97;6.27;;;;;;;17.50;100.00;98879.03;5041979;28;20186;-76
2023/08/01 06:37:41;;;;;;;6.93;6.23;;;;;;;17.54;100.00;98898.03;5023830;28;21049;-77
2023/08/01 06:40:07;;;;;;;6.93;6.03;;;;;;;17.57;100.00;98885.59;5011303;28;20274;-76
2023/08/01 06:42:33;;;;;;;7.43;6.17;;;;;;;17.63;100.00;98885.22;5012194;28;20210;-76
2023/08/01 06:44:58;;;;;;;8.60;6.60;;;;;;;17.66;100.00;98884.19;5011735;28;20208;-76
2023/08/01 06:47:23;;;;;;;7.07;6.07;;;;;;;17.72;100.00;98899.50;5011639;28;20197;-76
2023/08/01 06:49:51;;;;;;;7.87;6.10;;;;;;;17.76;100.00;98895.78;5014411;28;20243;-76
2023/08/01 06:52:17;;;;;;;7.70;6.30;;;;;;;17.81;100.00;98888.50;5012568;28;20201;-76
2023/08/01 06:54:42;;;;;;;7.47;5.90;;;;;;;17.87;100.00;98891.66;5014889;28;20190;-76
2023/08/01 06:57:08;;;;;;;8.00;6.57;;;;;;;17.84;100.00;98892.69;5013570;28;20182;-76
2023/08/01 06:59:33;;;;;;;6.97;6.10;;;;;;;17.81;100.00;98898.09;5019240;28;20189;-76
2023/08/01 07:01:58;;;;;;;7.60;6.20;;;;;;;17.85;100.00;98897.00;5012498;28;20208;-78
2023/08/01 07:04:27;;;;;;;7.03;5.87;;;;;;;17.87;100.00;98897.75;5009614;28;20305;-76
2023/08/01 07:06:52;;;;;;;7.47;5.90;;;;;;;17.88;100.00;98896.81;5010120;28;20196;-76
2023/08/01 07:09:17;;;;;;;6.80;5.40;;;;;;;17.85;100.00;98909.25;5011702;28;20187;-76
2023/08/01 07:11:43;;;;;;;7.33;5.97;;;;;;;17.78;100.00;98906.13;5012217;28;20665;-76
2023/08/01 07:14:08;;;;;;;8.30;5.77;;;;;;;17.77;100.00;98899.25;5012728;28;20202;-76
2023/08/01 07:16:33;;;;;;;7.27;5.90;;;;;;;17.82;100.00;98905.88;5006879;28;20189;-76
2023/08/01 07:19:00;;;;;;;8.23;5.97;;;;;;;17.89;100.00;98900.25;5006045;28;20190;-76
2023/08/01 07:21:26;;;;;;;7.37;6.20;;;;;;;17.94;100.00;98903.44;5010388;28;20189;-76
2023/08/01 07:23:51;;;;;;;6.37;5.50;;;;;;;17.98;100.00;98899.72;5012064;28;20194;-75
2023/08/01 07:26:16;;;;;;;6.23;5.60;;;;;;;18.04;100.00;98903.75;5014148;28;20213;-75
2023/08/01 07:28:42;;;;;;;6.10;4.97;;;;;;;18.03;100.00;98918.59;5010816;28;20847;-76
2023/08/01 07:31:07;;;;;;;5.50;4.90;;;;;;;18.01;100.00;98912.59;5011636;28;20185;-76
2023/08/01 07:33:33;;;;;;;6.30;4.70;;;;;;;17.94;100.00;98914.72;5014755;28;20184;-76
2023/08/01 07:35:59;;;;;;;7.50;4.90;;;;;;;17.89;100.00;98916.81;5006873;28;20204;-76
2023/08/01 07:38:26;;;;;;;5.83;5.03;;;;;;;17.88;100.00;98909.03;5011669;28;20725;-75
2023/08/01 07:40:52;;;;;;;6.13;4.60;;;;;;;17.92;100.00;98924.44;5010907;28;21020;-76
2023/08/01 07:43:18;;;;;;;6.23;4.37;;;;;;;17.96;100.00;98915.47;5012105;28;20225;-76
2023/08/01 07:45:47;;;;;;;6.50;4.27;;;;;;;17.95;100.00;98926.06;5011389;28;20205;-76
2023/08/01 07:48:12;;;;;;;5.10;4.10;;;;;;;18.00;100.00;98917.94;5013249;28;20198;-75
2023/08/01 07:50:37;;;;;;;4.70;3.80;;;;;;;18.07;100.00;98917.47;5013460;28;20193;-75
2023/08/01 07:53:03;;;;;;;4.80;4.30;;;;;;;18.13;100.00;98924.09;5014571;28;21107;-76
2023/08/01 07:55:28;;;;;;;6.17;4.33;;;;;;;18.09;100.00;98922.59;5012887;28;20182;-76
2023/08/01 07:57:53;;;;;;;4.57;4.17;;;;;;;18.03;100.00;98923.00;5029153;28;20192;-75
2023/08/01 08:00:19;;;;;;;6.17;4.33;;;;;;;18.04;100.00;98922.88;5007222;28;20883;-75
2023/08/01 08:02:46;;;;;;;5.53;4.70;;;;;;;18.02;100.00;98923.94;5011685;28;20706;-75
2023/08/01 08:05:11;;;;;;;5.90;4.40;;;;;;;18.06;100.00;98928.06;5008660;28;20646;-77
2023/08/01 08:07:37;;;;;;;5.67;3.87;;;;;;;18.06;100.00;98913.16;5012480;28;20229;-76
2023/08/01 08:10:04;;;;;;;5.33;4.17;;;;;;;18.16;100.00;98917.81;5017116;28;20711;-76
2023/08/01 08:12:29;;;;;;;4.50;4.03;;;;;;;18.24;100.00;98928.69;5012513;28;20212;-76
2023/08/01 08:14:55;;;;;;;5.37;4.10;;;;;;;18.28;100.00;98936.22;5011364;28;20184;-75
2023/08/01 08:17:20;;;;;;;4.57;3.60;;;;;;;18.32;100.00;98922.94;5011447;28;20247;-76
2023/08/01 08:19:46;;;;;;;4.13;3.73;;;;;;;18.36;100.00;98917.41;5013939;28;20238;-76
2023/08/01 08:22:11;;;;;;;6.17;4.13;;;;;;;18.35;100.00;98939.31;5014892;28;20240;-76
2023/08/01 08:24:39;;;;;;;5.07;3.63;;;;;;;18.47;100.00;98937.69;5013235;28;20208;-75
2023/08/01 08:27:05;;;;;;;4.40;3.97;;;;;;;18.45;100.00;98939.56;5010874;28;20194;-76
2023/08/01 08:29:33;;;;;;;6.13;4.10;;;;;;;18.56;100.00;98952.81;5012974;28;20201;-77
2023/08/01 08:31:59;;;;;;;4.13;3.63;;;;;;;18.60;100.00;98937.78;5026493;28;20292;-76
2023/08/01 08:34:24;;;;;;;7.40;4.03;;;;;;;18.57;100.00;98945.81;5040066;28;20194;-76
2023/08/01 08:36:50;;;;;;;5.17;3.60;;;;;;;18.40;100.00;98952.09;5019158;28;20186;-76
2023/08/01 08:39:16;;;;;;;4.77;3.70;;;;;;;18.38;100.00;98957.47;5016911;28;20226;-76
2023/08/01 08:41:49;;;;;;;4.40;3.53;;;;;;;18.34;100.00;98976.09;5013369;28;20248;-77
2023/08/01 08:44:16;;;;;;;4.50;3.60;;;;;;;18.34;100.00;98982.16;5016273;28;20183;-76
2023/08/01 08:46:44;;;;;;;3.90;3.53;;;;;;;18.36;100.00;98980.28;5015392;28;20187;-77
2023/08/01 08:49:10;;;;;;;5.43;3.53;;;;;;;18.35;100.00;99014.44;5013714;28;20180;-76
2023/08/01 08:51:37;;;;;;;4.70;3.50;;;;;;;18.32;100.00;99015.44;5013113;28;20772;-76
2023/08/01 08:54:06;;;;;;;3.27;3.00;;;;;;;18.34;100.00;99010.13;5012177;28;20207;-75
2023/08/01 08:56:33;;;;;;;2.97;2.50;;;;;;;18.54;100.00;99011.50;5019248;28;20678;-75
2023/08/01 08:58:59;;;;;;;2.63;1.90;;;;;;;18.69;100.00;99009.69;5011760;28;20219;-76
2023/08/01 09:01:25;;;;;;;2.20;1.60;;;;;;;18.85;100.00;99015.63;5017022;28;20226;-76
2023/08/01 09:03:50;;;;;;;1.97;1.70;;;;;;;19.02;100.00;99006.75;5021158;28;20175;-76
2023/08/01 09:06:17;;;;;;;1.40;1.30;;;;;;;19.22;100.00;99009.81;5014411;28;20267;-77
2023/08/01 09:08:54;;;;;;;2.17;1.40;;;;;;;19.37;100.00;99008.00;5012560;28;20190;-76
2023/08/01 09:11:19;;;;;;;1.30;1.17;;;;;;;19.38;100.00;99006.19;5019171;28;20321;-76
2023/08/01 09:13:45;;;;;;;2.03;1.33;;;;;;;19.37;100.00;99007.13;5012412;28;20235;-75
2023/08/01 09:16:12;;;;;;;2.57;1.00;;;;;;;19.59;100.00;99004.78;5017676;28;20550;-76
2023/08/01 09:18:48;;;;;;;2.73;1.40;;;;;;;19.72;100.00;98999.56;5013058;28;20189;-76
2023/08/01 09:21:13;;;;;;;2.40;1.50;;;;;;;19.69;100.00;99006.75;5013742;28;20269;-76
2023/08/01 09:23:39;;;;;;;2.90;2.00;;;;;;;19.71;100.00;99007.50;5013712;28;20183;-75
2023/08/01 09:26:18;;;;;;;3.27;2.17;;;;;;;19.59;100.00;99012.66;5019436;28;20313;-75
2023/08/01 09:28:54;;;;;;;2.10;1.80;;;;;;;19.58;100.00;99010.13;5007598;28;20270;-75
2023/08/01 09:31:27;;;;;;;3.60;2.00;;;;;;;19.64;100.00;99022.81;5012263;28;20676;-75
2023/08/01 09:33:55;;;;;;;2.97;2.00;;;;;;;19.74;100.00;99023.88;5013963;28;20192;-74
2023/08/01 09:36:22;;;;;;;3.10;1.53;;;;;;;19.95;100.00;99026.03;5012414;28;20207;-75
2023/08/01 09:38:47;;;;;;;2.87;1.90;;;;;;;20.22;100.00;99033.81;5015287;28;20191;-75
2023/08/01 09:41:19;;;;;;;1.63;1.53;;;;;;;20.47;100.00;99033.88;5014840;28;20194;-76
2023/08/01 09:43:46;;;;;;;2.20;1.43;;;;;;;20.79;100.00;99042.13;5011923;28;20281;-75
2023/08/01 09:46:12;;;;;;;1.90;1.77;;;;;;;20.95;100.00;99039.22;5019139;28;20199;-75
2023/08/01 09:48:39;;;;;;;3.07;1.60;;;;;;;21.08;100.00;99046.25;5015929;28;20270;-75
2023/08/01 09:51:06;;;;;;;2.40;1.83;;;;;;;21.10;100.00;99050.44;5013000;28;20179;-76
2023/08/01 09:53:32;;;;;;;2.30;1.60;;;;;;;20.97;100.00;99041.78;5014701;28;20625;-75
2023/08/01 09:56:00;;;;;;;2.10;1.40;;;;;;;20.86;100.00;99053.91;5012497;28;20180;-76
2023/08/01 09:58:31;;;;;;;1.53;1.37;;;;;;;20.80;100.00;99056.09;5017188;28;20295;-75
2023/08/01 10:00:56;;;;;;;1.50;1.30;;;;;;;20.82;100.00;99059.47;5008279;28;20185;-76
2023/08/01 10:03:22;;;;;;;1.40;1.20;;;;;;;20.88;100.00;99066.94;5009081;28;20199;-75
2023/08/01 10:05:48;;;;;;;3.17;1.40;;;;;;;20.93;100.00;99056.09;5017465;28;20682;-76
2023/08/01 10:08:15;;;;;;;2.47;1.30;;;;;;;20.88;100.00;99058.19;5013569;28;20811;-75
2023/08/01 10:10:41;;;;;;;1.83;1.23;;;;;;;20.79;100.00;99062.34;5012039;28;20641;-76
2023/08/01 10:13:07;;;;;;;1.87;1.30;;;;;;;20.89;100.00;99058.09;5012871;28;20253;-75
2023/08/01 10:15:33;;;;;;;2.60;1.30;;;;;;;20.98;100.00;99062.69;5009450;28;20184;-76
2023/08/01 10:17:58;;;;;;;1.60;1.07;;;;;;;21.08;100.00;99065.50;5010465;28;20184;-76
2023/08/01 10:20:24;;;;;;;1.67;1.00;;;;;;;20.97;100.00;99065.44;5011143;28;20309;-76
2023/08/01 10:22:51;;;;;;;1.43;1.20;;;;;;;21.14;100.00;99074.72;5019947;28;20253;-75
2023/08/01 10:25:18;;;;;;;1.50;1.30;;;;;;;21.30;100.00;99072.66;5010605;28;20204;-75
2023/08/01 10:27:43;;;;;;;1.57;1.20;;;;;;;21.44;100.00;99070.81;5018960;28;21066;-75
2023/08/01 10:30:09;;;;;;;1.10;1.00;;;;;;;21.56;100.00;99083.06;5038305;28;20184;-75
2023/08/01 10:32:37;;;;;;;2.20;1.37;;;;;;;21.80;100.00;99084.84;5028077;28;20208;-75
2023/08/01 10:35:03;;;;;;;1.93;1.40;;;;;;;21.97;100.00;99086.19;5018142;28;20198;-75
2023/08/01 10:37:47;;;;;;;1.47;1.30;;;;;;;22.05;100.00;99083.00;5017333;28;20196;-75
2023/08/01 10:40:12;;;;;;;1.77;1.40;;;;;;;22.11;100.00;99079.03;5013591;28;20576;-75
2023/08/01 10:42:41;;;;;;;1.53;1.43;;;;;;;22.04;100.00;99081.31;5022466;28;20210;-75
2023/08/01 10:45:29;;;;;;;2.47;1.40;;;;;;;22.20;100.00;99086.25;5011623;28;20212;-75
2023/08/01 10:48:07;;;;;;;2.83;1.47;;;;;;;22.14;93.83;99087.56;5012267;28;20188;-76
2023/08/01 10:50:32;;;;;;;2.53;1.30;;;;;;;22.32;96.32;99087.09;5017220;28;20207;-76
2023/08/01 10:53:12;;;;;;;1.90;1.53;;;;;;;22.59;94.42;99083.31;5011797;28;20239;-76
2023/08/01 10:55:46;;;;;;;1.57;1.30;;;;;;;22.76;95.46;99090.72;5012140;28;20211;-76
2023/08/01 10:58:12;;;;;;;2.20;1.73;;;;;;;22.92;92.27;99084.22;5013642;28;20266;-75
2023/08/01 11:00:38;;;;;;;1.60;1.50;;;;;;;23.04;91.01;99090.31;5014710;28;20279;-76
2023/08/01 11:03:04;;;;;;;1.90;1.37;;;;;;;23.05;88.19;99089.34;5015831;28;20216;-76
2023/08/01 11:05:29;;;;;;;2.73;1.43;;;;;;;22.87;87.92;99092.50;5011582;28;20219;-75
2023/08/01 11:07:56;;;;;;;3.00;1.60;;;;;;;22.97;87.45;99103.16;5007761;28;20187;-75
2023/08/01 11:10:23;;;;;;;3.47;1.50;;;;;;;23.17;86.62;99091.00;5008611;28;20575;-75
2023/08/01 11:12:49;;;;;;;1.63;1.20;;;;;;;23.44;85.72;99090.59;5010133;28;20933;-76
2023/08/01 11:15:15;;;;;;;2.60;1.53;;;;;;;23.41;86.69;99101.41;5010364;28;20199;-75
2023/08/01 11:17:42;;;;;;;1.43;1.30;;;;;;;23.50;88.97;99094.53;5012192;28;20202;-75
2023/08/01 11:20:09;;;;;;;2.17;1.30;;;;;;;23.72;86.72;99096.22;5014395;28;20196;-75
2023/08/01 11:22:36;;;;;;;2.00;1.43;;;;;;;23.65;85.33;99095.06;5013612;28;20290;-75